ETOU/WIE METAR and TAF weather

Enter ICAO airport designator
Station Type Date Time Source
ETOU METAR 2019/12/08 14:09 UTC NOAA

ETOU 081409Z AUTO 24013KT 9999 OVC019 11/08 A2968 RMK AO2 RAB1356E09 SLP055 $


Station Type Date Time Source
ETOU Decoded METAR 2019/12/08 14:09 UTC NOAA

Wiesbaden, Germany (ETOU) 50-03N 008-20E
Dec 08, 2019 - 09:09 AM EST / 2019.12.08 1409 UTC
Wind: from the WSW (240 degrees) at 15 MPH (13 KT):0
Visibility: greater than 7 mile(s):0
Sky conditions: overcast
Temperature: 51 F (11 C)
Dew Point: 46 F (8 C)
Relative Humidity: 81%
Pressure (altimeter): 29.68 in. Hg (1005 hPa)
ob: ETOU 081409Z AUTO 24013KT 9999 OVC019 11/08 A2968 RMK AO2 RAB1356E09 SLP055
cycle: 14

Station Type Date Time Source
ETOU TAF 2019/12/08 12:59 UTC NOAA

TAF
AMD ETOU 081258Z 0812/0910 22015G20KT 8000 -SHRA BKN015 QNH2965INS
TEMPO 0812/0815 22020G30KT BKN005
BECMG 0818/0819 22010G15KT 9999 NSW SCT010 BKN015 QNH2962INS
BECMG 0822/0823 22010G20KT 9999 SCT010 BKN020 QNH2958INS TX11/0815Z TN05/0904Z LAST NO
AMDS AFT 0812 NEXT 0904

Example: see airport list